sensor_id;sensor_type;location;lat;lon;timestamp;P1;durP1;ratioP1;P2;durP2;ratioP2
3845;SDS011;1938;50.812;7.738;2024-01-30T00:01:40;16.90;;;9.00;;
3845;SDS011;1938;50.812;7.738;2024-01-30T00:04:06;18.23;;;8.50;;
3845;SDS011;1938;50.812;7.738;2024-01-30T00:06:32;15.80;;;9.00;;
3845;SDS011;1938;50.812;7.738;2024-01-30T00:08:58;22.73;;;9.00;;
3845;SDS011;1938;50.812;7.738;2024-01-30T00:11:23;15.83;;;9.43;;
3845;SDS011;1938;50.812;7.738;2024-01-30T00:13:50;18.87;;;9.73;;
3845;SDS011;1938;50.812;7.738;2024-01-30T00:16:22;16.20;;;9.13;;
3845;SDS011;1938;50.812;7.738;2024-01-30T00:18:49;19.37;;;10.00;;
3845;SDS011;1938;50.812;7.738;2024-01-30T00:21:15;24.03;;;9.80;;
3845;SDS011;1938;50.812;7.738;2024-01-30T00:23:41;15.97;;;9.03;;
3845;SDS011;1938;50.812;7.738;2024-01-30T00:26:06;26.27;;;8.67;;
3845;SDS011;1938;50.812;7.738;2024-01-30T00:28:32;18.80;;;9.10;;
3845;SDS011;1938;50.812;7.738;2024-01-30T00:30:57;17.20;;;9.30;;
3845;SDS011;1938;50.812;7.738;2024-01-30T00:33:23;18.90;;;9.47;;
3845;SDS011;1938;50.812;7.738;2024-01-30T00:35:48;17.53;;;9.30;;
3845;SDS011;1938;50.812;7.738;2024-01-30T00:38:14;19.23;;;9.23;;
3845;SDS011;1938;50.812;7.738;2024-01-30T00:40:39;19.63;;;9.03;;
3845;SDS011;1938;50.812;7.738;2024-01-30T00:43:05;15.00;;;7.60;;
3845;SDS011;1938;50.812;7.738;2024-01-30T00:45:30;25.23;;;9.80;;
3845;SDS011;1938;50.812;7.738;2024-01-30T00:47:56;18.97;;;9.97;;
3845;SDS011;1938;50.812;7.738;2024-01-30T00:50:23;20.17;;;9.63;;
3845;SDS011;1938;50.812;7.738;2024-01-30T00:52:48;17.30;;;9.23;;
3845;SDS011;1938;50.812;7.738;2024-01-30T00:55:14;17.27;;;8.87;;
3845;SDS011;1938;50.812;7.738;2024-01-30T00:57:39;25.60;;;9.07;;
3845;SDS011;1938;50.812;7.738;2024-01-30T01:00:05;17.00;;;8.80;;
3845;SDS011;1938;50.812;7.738;2024-01-30T01:02:34;14.73;;;7.83;;
3845;SDS011;1938;50.812;7.738;2024-01-30T01:05:00;18.23;;;8.33;;
3845;SDS011;1938;50.812;7.738;2024-01-30T01:07:26;15.67;;;7.97;;
3845;SDS011;1938;50.812;7.738;2024-01-30T01:09:52;16.97;;;8.27;;
3845;SDS011;1938;50.812;7.738;2024-01-30T01:12:17;17.53;;;9.10;;
3845;SDS011;1938;50.812;7.738;2024-01-30T01:14:43;23.40;;;8.87;;
3845;SDS011;1938;50.812;7.738;2024-01-30T01:17:09;18.67;;;8.73;;
3845;SDS011;1938;50.812;7.738;2024-01-30T01:19:35;18.20;;;8.87;;
3845;SDS011;1938;50.812;7.738;2024-01-30T01:22:01;27.57;;;9.10;;
3845;SDS011;1938;50.812;7.738;2024-01-30T01:24:28;16.70;;;8.40;;
3845;SDS011;1938;50.812;7.738;2024-01-30T01:26:54;16.07;;;8.47;;
3845;SDS011;1938;50.812;7.738;2024-01-30T01:29:20;23.00;;;8.97;;
3845;SDS011;1938;50.812;7.738;2024-01-30T01:31:53;17.20;;;8.80;;
3845;SDS011;1938;50.812;7.738;2024-01-30T01:34:19;17.40;;;8.03;;
3845;SDS011;1938;50.812;7.738;2024-01-30T01:36:44;17.10;;;8.00;;
3845;SDS011;1938;50.812;7.738;2024-01-30T01:39:10;17.70;;;8.70;;
3845;SDS011;1938;50.812;7.738;2024-01-30T01:41:35;15.80;;;8.97;;
3845;SDS011;1938;50.812;7.738;2024-01-30T01:44:01;18.20;;;7.97;;
3845;SDS011;1938;50.812;7.738;2024-01-30T01:46:27;15.03;;;7.77;;
3845;SDS011;1938;50.812;7.738;2024-01-30T01:48:55;17.33;;;8.43;;
3845;SDS011;1938;50.812;7.738;2024-01-30T01:51:22;15.40;;;9.57;;
3845;SDS011;1938;50.812;7.738;2024-01-30T01:53:50;15.00;;;7.43;;
3845;SDS011;1938;50.812;7.738;2024-01-30T01:56:16;16.70;;;7.10;;
3845;SDS011;1938;50.812;7.738;2024-01-30T01:58:41;17.83;;;8.83;;
3845;SDS011;1938;50.812;7.738;2024-01-30T02:01:10;16.47;;;8.07;;
3845;SDS011;1938;50.812;7.738;2024-01-30T02:03:37;20.13;;;9.57;;
3845;SDS011;1938;50.812;7.738;2024-01-30T02:06:04;17.40;;;8.23;;
3845;SDS011;1938;50.812;7.738;2024-01-30T02:08:29;19.40;;;8.87;;
3845;SDS011;1938;50.812;7.738;2024-01-30T02:10:56;15.07;;;8.37;;
3845;SDS011;1938;50.812;7.738;2024-01-30T02:13:21;16.63;;;8.00;;
3845;SDS011;1938;50.812;7.738;2024-01-30T02:15:54;14.53;;;7.93;;
3845;SDS011;1938;50.812;7.738;2024-01-30T02:18:20;16.93;;;8.00;;
3845;SDS011;1938;50.812;7.738;2024-01-30T02:20:48;15.07;;;7.67;;
3845;SDS011;1938;50.812;7.738;2024-01-30T02:23:18;16.83;;;9.00;;
3845;SDS011;1938;50.812;7.738;2024-01-30T02:25:44;12.93;;;7.50;;
3845;SDS011;1938;50.812;7.738;2024-01-30T02:28:11;15.00;;;8.67;;
3845;SDS011;1938;50.812;7.738;2024-01-30T02:30:37;14.33;;;8.33;;
3845;SDS011;1938;50.812;7.738;2024-01-30T02:33:04;15.47;;;8.20;;
3845;SDS011;1938;50.812;7.738;2024-01-30T02:35:29;13.83;;;6.87;;
3845;SDS011;1938;50.812;7.738;2024-01-30T02:37:55;17.77;;;8.27;;
3845;SDS011;1938;50.812;7.738;2024-01-30T02:40:20;17.13;;;8.23;;
3845;SDS011;1938;50.812;7.738;2024-01-30T02:42:46;29.17;;;9.80;;
3845;SDS011;1938;50.812;7.738;2024-01-30T02:45:12;15.70;;;7.90;;
3845;SDS011;1938;50.812;7.738;2024-01-30T02:47:38;14.90;;;7.37;;
3845;SDS011;1938;50.812;7.738;2024-01-30T02:50:04;16.20;;;7.97;;
3845;SDS011;1938;50.812;7.738;2024-01-30T02:52:30;25.07;;;8.73;;
3845;SDS011;1938;50.812;7.738;2024-01-30T02:54:56;18.30;;;8.37;;
3845;SDS011;1938;50.812;7.738;2024-01-30T02:57:22;13.97;;;8.13;;
3845;SDS011;1938;50.812;7.738;2024-01-30T02:59:48;17.07;;;8.27;;
3845;SDS011;1938;50.812;7.738;2024-01-30T03:02:13;15.73;;;7.83;;
3845;SDS011;1938;50.812;7.738;2024-01-30T03:04:42;15.53;;;8.30;;
3845;SDS011;1938;50.812;7.738;2024-01-30T03:07:08;14.90;;;8.67;;
3845;SDS011;1938;50.812;7.738;2024-01-30T03:09:34;21.33;;;8.60;;
3845;SDS011;1938;50.812;7.738;2024-01-30T03:11:59;14.43;;;7.23;;
3845;SDS011;1938;50.812;7.738;2024-01-30T03:14:25;14.93;;;7.43;;
3845;SDS011;1938;50.812;7.738;2024-01-30T03:16:51;16.80;;;8.40;;
3845;SDS011;1938;50.812;7.738;2024-01-30T03:19:17;15.87;;;9.13;;
3845;SDS011;1938;50.812;7.738;2024-01-30T03:21:43;14.47;;;8.23;;
3845;SDS011;1938;50.812;7.738;2024-01-30T03:24:09;14.33;;;7.60;;
3845;SDS011;1938;50.812;7.738;2024-01-30T03:26:34;22.10;;;8.27;;
3845;SDS011;1938;50.812;7.738;2024-01-30T03:29:00;13.97;;;7.57;;
3845;SDS011;1938;50.812;7.738;2024-01-30T03:31:26;14.43;;;6.97;;
3845;SDS011;1938;50.812;7.738;2024-01-30T03:33:52;22.37;;;7.60;;
3845;SDS011;1938;50.812;7.738;2024-01-30T03:36:17;15.33;;;8.10;;
3845;SDS011;1938;50.812;7.738;2024-01-30T03:38:43;14.77;;;7.27;;
3845;SDS011;1938;50.812;7.738;2024-01-30T03:41:09;15.53;;;8.17;;
3845;SDS011;1938;50.812;7.738;2024-01-30T03:43:35;18.00;;;8.60;;
3845;SDS011;1938;50.812;7.738;2024-01-30T03:46:01;18.60;;;8.47;;
3845;SDS011;1938;50.812;7.738;2024-01-30T03:48:28;18.33;;;8.53;;
3845;SDS011;1938;50.812;7.738;2024-01-30T03:50:54;18.23;;;7.50;;
3845;SDS011;1938;50.812;7.738;2024-01-30T03:53:21;25.40;;;8.80;;
3845;SDS011;1938;50.812;7.738;2024-01-30T03:55:47;15.83;;;7.23;;
3845;SDS011;1938;50.812;7.738;2024-01-30T03:58:12;13.07;;;7.30;;
3845;SDS011;1938;50.812;7.738;2024-01-30T04:00:38;18.40;;;7.83;;
3845;SDS011;1938;50.812;7.738;2024-01-30T04:03:03;12.53;;;7.33;;
3845;SDS011;1938;50.812;7.738;2024-01-30T04:05:30;17.00;;;8.37;;
3845;SDS011;1938;50.812;7.738;2024-01-30T04:07:55;16.53;;;8.00;;
3845;SDS011;1938;50.812;7.738;2024-01-30T04:10:22;14.53;;;7.10;;
3845;SDS011;1938;50.812;7.738;2024-01-30T04:12:48;15.43;;;7.80;;
3845;SDS011;1938;50.812;7.738;2024-01-30T04:15:13;16.53;;;8.20;;
3845;SDS011;1938;50.812;7.738;2024-01-30T04:17:39;14.30;;;7.40;;
3845;SDS011;1938;50.812;7.738;2024-01-30T04:20:05;16.43;;;7.57;;
3845;SDS011;1938;50.812;7.738;2024-01-30T04:22:31;14.97;;;6.70;;
3845;SDS011;1938;50.812;7.738;2024-01-30T04:24:57;12.47;;;6.13;;
3845;SDS011;1938;50.812;7.738;2024-01-30T04:27:22;15.90;;;8.37;;
3845;SDS011;1938;50.812;7.738;2024-01-30T04:29:48;17.57;;;8.30;;
3845;SDS011;1938;50.812;7.738;2024-01-30T04:32:14;15.03;;;8.30;;
3845;SDS011;1938;50.812;7.738;2024-01-30T04:34:39;16.70;;;8.83;;
3845;SDS011;1938;50.812;7.738;2024-01-30T04:37:05;16.13;;;7.60;;
3845;SDS011;1938;50.812;7.738;2024-01-30T04:39:32;14.70;;;7.30;;
3845;SDS011;1938;50.812;7.738;2024-01-30T04:41:58;21.33;;;6.83;;
3845;SDS011;1938;50.812;7.738;2024-01-30T04:44:24;12.77;;;7.03;;
3845;SDS011;1938;50.812;7.738;2024-01-30T04:46:49;10.90;;;5.70;;
3845;SDS011;1938;50.812;7.738;2024-01-30T04:49:15;12.70;;;7.40;;
3845;SDS011;1938;50.812;7.738;2024-01-30T04:51:40;14.60;;;7.47;;
3845;SDS011;1938;50.812;7.738;2024-01-30T04:54:06;15.10;;;7.40;;
3845;SDS011;1938;50.812;7.738;2024-01-30T04:56:31;18.47;;;6.60;;
3845;SDS011;1938;50.812;7.738;2024-01-30T04:58:58;15.20;;;6.83;;
3845;SDS011;1938;50.812;7.738;2024-01-30T05:01:25;15.83;;;8.50;;
3845;SDS011;1938;50.812;7.738;2024-01-30T05:03:50;15.33;;;8.30;;
3845;SDS011;1938;50.812;7.738;2024-01-30T05:06:25;15.23;;;7.70;;
3845;SDS011;1938;50.812;7.738;2024-01-30T05:08:51;18.27;;;8.30;;
3845;SDS011;1938;50.812;7.738;2024-01-30T05:11:17;22.33;;;8.40;;
3845;SDS011;1938;50.812;7.738;2024-01-30T05:13:43;16.83;;;8.77;;
3845;SDS011;1938;50.812;7.738;2024-01-30T05:16:08;17.90;;;8.87;;
3845;SDS011;1938;50.812;7.738;2024-01-30T05:18:34;21.23;;;9.13;;
3845;SDS011;1938;50.812;7.738;2024-01-30T05:20:59;20.53;;;8.03;;
3845;SDS011;1938;50.812;7.738;2024-01-30T05:23:25;12.80;;;7.50;;
3845;SDS011;1938;50.812;7.738;2024-01-30T05:25:50;16.63;;;8.17;;
3845;SDS011;1938;50.812;7.738;2024-01-30T05:28:16;14.00;;;7.80;;
3845;SDS011;1938;50.812;7.738;2024-01-30T05:30:42;18.53;;;9.17;;
3845;SDS011;1938;50.812;7.738;2024-01-30T05:33:07;20.07;;;9.27;;
3845;SDS011;1938;50.812;7.738;2024-01-30T05:35:33;17.80;;;9.13;;
3845;SDS011;1938;50.812;7.738;2024-01-30T05:37:58;18.00;;;8.93;;
3845;SDS011;1938;50.812;7.738;2024-01-30T05:40:24;21.90;;;8.13;;
3845;SDS011;1938;50.812;7.738;2024-01-30T05:42:49;22.40;;;9.60;;
3845;SDS011;1938;50.812;7.738;2024-01-30T05:45:15;16.33;;;8.90;;
3845;SDS011;1938;50.812;7.738;2024-01-30T05:47:40;29.13;;;9.77;;
3845;SDS011;1938;50.812;7.738;2024-01-30T05:50:06;21.17;;;8.80;;
3845;SDS011;1938;50.812;7.738;2024-01-30T05:52:32;20.43;;;9.70;;
3845;SDS011;1938;50.812;7.738;2024-01-30T05:54:57;19.90;;;8.63;;
3845;SDS011;1938;50.812;7.738;2024-01-30T05:57:23;13.93;;;6.97;;
3845;SDS011;1938;50.812;7.738;2024-01-30T05:59:48;17.73;;;8.87;;
3845;SDS011;1938;50.812;7.738;2024-01-30T06:02:16;16.10;;;8.60;;
3845;SDS011;1938;50.812;7.738;2024-01-30T06:04:42;16.63;;;7.70;;
3845;SDS011;1938;50.812;7.738;2024-01-30T06:07:08;14.40;;;7.83;;
3845;SDS011;1938;50.812;7.738;2024-01-30T06:09:34;14.57;;;8.20;;
3845;SDS011;1938;50.812;7.738;2024-01-30T06:11:59;16.77;;;8.37;;
3845;SDS011;1938;50.812;7.738;2024-01-30T06:14:25;15.17;;;8.30;;
3845;SDS011;1938;50.812;7.738;2024-01-30T06:16:50;15.30;;;8.40;;
3845;SDS011;1938;50.812;7.738;2024-01-30T06:19:16;18.77;;;8.93;;
3845;SDS011;1938;50.812;7.738;2024-01-30T06:21:41;25.77;;;9.40;;
3845;SDS011;1938;50.812;7.738;2024-01-30T06:24:07;15.67;;;8.73;;
3845;SDS011;1938;50.812;7.738;2024-01-30T06:26:33;14.07;;;7.60;;
3845;SDS011;1938;50.812;7.738;2024-01-30T06:28:59;14.80;;;8.60;;
3845;SDS011;1938;50.812;7.738;2024-01-30T06:31:24;19.60;;;8.40;;
3845;SDS011;1938;50.812;7.738;2024-01-30T06:33:50;16.60;;;9.73;;
3845;SDS011;1938;50.812;7.738;2024-01-30T06:36:16;17.23;;;8.27;;
3845;SDS011;1938;50.812;7.738;2024-01-30T06:38:41;14.87;;;8.40;;
3845;SDS011;1938;50.812;7.738;2024-01-30T06:41:07;17.37;;;8.43;;
3845;SDS011;1938;50.812;7.738;2024-01-30T06:43:32;16.80;;;6.97;;
3845;SDS011;1938;50.812;7.738;2024-01-30T06:45:58;12.30;;;7.00;;
3845;SDS011;1938;50.812;7.738;2024-01-30T06:48:24;14.53;;;7.97;;
3845;SDS011;1938;50.812;7.738;2024-01-30T06:50:53;15.27;;;8.57;;
3845;SDS011;1938;50.812;7.738;2024-01-30T06:53:19;14.30;;;8.00;;
3845;SDS011;1938;50.812;7.738;2024-01-30T06:55:44;16.20;;;9.00;;
3845;SDS011;1938;50.812;7.738;2024-01-30T06:58:11;15.93;;;8.40;;
3845;SDS011;1938;50.812;7.738;2024-01-30T07:00:37;17.37;;;8.53;;
3845;SDS011;1938;50.812;7.738;2024-01-30T07:03:02;16.47;;;8.40;;
3845;SDS011;1938;50.812;7.738;2024-01-30T07:05:28;14.30;;;8.20;;
3845;SDS011;1938;50.812;7.738;2024-01-30T07:07:54;13.30;;;8.17;;
3845;SDS011;1938;50.812;7.738;2024-01-30T07:10:19;19.13;;;8.87;;
3845;SDS011;1938;50.812;7.738;2024-01-30T07:12:45;15.13;;;8.17;;
3845;SDS011;1938;50.812;7.738;2024-01-30T07:15:10;13.73;;;7.20;;
3845;SDS011;1938;50.812;7.738;2024-01-30T07:17:36;15.43;;;7.80;;
3845;SDS011;1938;50.812;7.738;2024-01-30T07:20:02;14.13;;;8.30;;
3845;SDS011;1938;50.812;7.738;2024-01-30T07:22:31;15.10;;;8.40;;
3845;SDS011;1938;50.812;7.738;2024-01-30T07:24:56;17.60;;;8.70;;
3845;SDS011;1938;50.812;7.738;2024-01-30T07:27:22;16.67;;;7.87;;
3845;SDS011;1938;50.812;7.738;2024-01-30T07:29:47;14.70;;;8.10;;
3845;SDS011;1938;50.812;7.738;2024-01-30T07:32:13;16.20;;;8.50;;
3845;SDS011;1938;50.812;7.738;2024-01-30T07:34:39;16.17;;;8.30;;
3845;SDS011;1938;50.812;7.738;2024-01-30T07:37:04;16.63;;;7.73;;
3845;SDS011;1938;50.812;7.738;2024-01-30T07:39:33;15.60;;;8.40;;
3845;SDS011;1938;50.812;7.738;2024-01-30T07:41:59;15.60;;;8.03;;
3845;SDS011;1938;50.812;7.738;2024-01-30T07:44:24;19.70;;;8.83;;
3845;SDS011;1938;50.812;7.738;2024-01-30T07:46:49;17.30;;;8.23;;
3845;SDS011;1938;50.812;7.738;2024-01-30T07:49:15;15.87;;;7.90;;
3845;SDS011;1938;50.812;7.738;2024-01-30T07:51:41;16.30;;;7.83;;
3845;SDS011;1938;50.812;7.738;2024-01-30T07:54:06;15.37;;;8.10;;
3845;SDS011;1938;50.812;7.738;2024-01-30T07:56:32;15.43;;;7.87;;
3845;SDS011;1938;50.812;7.738;2024-01-30T07:58:57;14.90;;;7.43;;
3845;SDS011;1938;50.812;7.738;2024-01-30T08:01:22;13.03;;;7.30;;
3845;SDS011;1938;50.812;7.738;2024-01-30T08:03:49;15.10;;;7.47;;
3845;SDS011;1938;50.812;7.738;2024-01-30T08:06:15;17.17;;;6.70;;
3845;SDS011;1938;50.812;7.738;2024-01-30T08:08:40;13.60;;;6.57;;
3845;SDS011;1938;50.812;7.738;2024-01-30T08:11:06;14.13;;;7.00;;
3845;SDS011;1938;50.812;7.738;2024-01-30T08:13:32;12.93;;;6.33;;
3845;SDS011;1938;50.812;7.738;2024-01-30T08:15:58;19.30;;;7.17;;
3845;SDS011;1938;50.812;7.738;2024-01-30T08:18:23;12.27;;;6.70;;
3845;SDS011;1938;50.812;7.738;2024-01-30T08:20:49;12.73;;;7.07;;
3845;SDS011;1938;50.812;7.738;2024-01-30T08:23:14;18.13;;;6.87;;
3845;SDS011;1938;50.812;7.738;2024-01-30T08:25:40;12.33;;;6.90;;
3845;SDS011;1938;50.812;7.738;2024-01-30T08:28:05;15.17;;;8.37;;
3845;SDS011;1938;50.812;7.738;2024-01-30T08:30:32;11.87;;;6.57;;
3845;SDS011;1938;50.812;7.738;2024-01-30T08:32:57;10.40;;;5.90;;
3845;SDS011;1938;50.812;7.738;2024-01-30T08:35:24;14.23;;;6.67;;
3845;SDS011;1938;50.812;7.738;2024-01-30T08:37:50;13.93;;;6.33;;
3845;SDS011;1938;50.812;7.738;2024-01-30T08:40:15;14.43;;;6.57;;
3845;SDS011;1938;50.812;7.738;2024-01-30T08:42:41;12.20;;;6.70;;
3845;SDS011;1938;50.812;7.738;2024-01-30T08:45:06;11.27;;;5.90;;
3845;SDS011;1938;50.812;7.738;2024-01-30T08:47:33;12.50;;;6.93;;
3845;SDS011;1938;50.812;7.738;2024-01-30T08:49:58;11.50;;;6.00;;
3845;SDS011;1938;50.812;7.738;2024-01-30T08:52:24;14.53;;;7.23;;
3845;SDS011;1938;50.812;7.738;2024-01-30T08:54:49;11.70;;;6.40;;
3845;SDS011;1938;50.812;7.738;2024-01-30T08:57:15;9.43;;;6.33;;
3845;SDS011;1938;50.812;7.738;2024-01-30T08:59:41;13.30;;;6.87;;
3845;SDS011;1938;50.812;7.738;2024-01-30T09:02:09;11.80;;;6.70;;
3845;SDS011;1938;50.812;7.738;2024-01-30T09:04:35;13.90;;;6.53;;
3845;SDS011;1938;50.812;7.738;2024-01-30T09:07:00;12.70;;;6.83;;
3845;SDS011;1938;50.812;7.738;2024-01-30T09:09:26;17.70;;;7.33;;
3845;SDS011;1938;50.812;7.738;2024-01-30T09:11:51;12.67;;;5.90;;
3845;SDS011;1938;50.812;7.738;2024-01-30T09:14:17;12.03;;;6.00;;
3845;SDS011;1938;50.812;7.738;2024-01-30T09:16:42;11.00;;;5.80;;
3845;SDS011;1938;50.812;7.738;2024-01-30T09:19:08;13.97;;;6.57;;
3845;SDS011;1938;50.812;7.738;2024-01-30T09:21:33;19.90;;;6.23;;
3845;SDS011;1938;50.812;7.738;2024-01-30T09:24:02;16.50;;;6.73;;
3845;SDS011;1938;50.812;7.738;2024-01-30T09:26:31;12.90;;;6.33;;
3845;SDS011;1938;50.812;7.738;2024-01-30T09:28:56;10.17;;;5.77;;
3845;SDS011;1938;50.812;7.738;2024-01-30T09:31:22;20.13;;;5.73;;
3845;SDS011;1938;50.812;7.738;2024-01-30T09:33:48;14.17;;;7.10;;
3845;SDS011;1938;50.812;7.738;2024-01-30T09:36:14;14.23;;;6.70;;
3845;SDS011;1938;50.812;7.738;2024-01-30T09:38:44;14.13;;;6.70;;
3845;SDS011;1938;50.812;7.738;2024-01-30T09:41:10;13.20;;;6.10;;
3845;SDS011;1938;50.812;7.738;2024-01-30T09:43:38;12.73;;;6.23;;
3845;SDS011;1938;50.812;7.738;2024-01-30T09:46:07;12.17;;;6.00;;
3845;SDS011;1938;50.812;7.738;2024-01-30T09:48:37;18.90;;;6.10;;
3845;SDS011;1938;50.812;7.738;2024-01-30T09:51:06;10.27;;;6.13;;
3845;SDS011;1938;50.812;7.738;2024-01-30T09:53:33;11.30;;;6.40;;
3845;SDS011;1938;50.812;7.738;2024-01-30T09:55:58;11.87;;;6.57;;
3845;SDS011;1938;50.812;7.738;2024-01-30T09:58:26;14.93;;;5.97;;
3845;SDS011;1938;50.812;7.738;2024-01-30T10:00:51;14.60;;;5.10;;
3845;SDS011;1938;50.812;7.738;2024-01-30T10:03:19;9.93;;;5.90;;
3845;SDS011;1938;50.812;7.738;2024-01-30T10:05:51;16.30;;;6.43;;
3845;SDS011;1938;50.812;7.738;2024-01-30T10:08:20;13.30;;;5.63;;
3845;SDS011;1938;50.812;7.738;2024-01-30T10:10:49;14.10;;;5.83;;
3845;SDS011;1938;50.812;7.738;2024-01-30T10:13:17;20.33;;;7.60;;
3845;SDS011;1938;50.812;7.738;2024-01-30T10:15:43;12.80;;;6.13;;
3845;SDS011;1938;50.812;7.738;2024-01-30T10:18:09;20.43;;;6.60;;
3845;SDS011;1938;50.812;7.738;2024-01-30T10:20:35;10.20;;;5.57;;
3845;SDS011;1938;50.812;7.738;2024-01-30T10:23:01;13.63;;;5.33;;
3845;SDS011;1938;50.812;7.738;2024-01-30T10:25:28;14.50;;;5.70;;
3845;SDS011;1938;50.812;7.738;2024-01-30T10:27:56;12.13;;;6.00;;
3845;SDS011;1938;50.812;7.738;2024-01-30T10:30:22;11.73;;;5.90;;
3845;SDS011;1938;50.812;7.738;2024-01-30T10:32:48;8.73;;;5.50;;
3845;SDS011;1938;50.812;7.738;2024-01-30T10:35:14;20.73;;;5.90;;
3845;SDS011;1938;50.812;7.738;2024-01-30T10:37:43;14.30;;;6.40;;
3845;SDS011;1938;50.812;7.738;2024-01-30T10:40:09;15.33;;;5.77;;
3845;SDS011;1938;50.812;7.738;2024-01-30T10:42:38;12.23;;;5.40;;
3845;SDS011;1938;50.812;7.738;2024-01-30T10:45:11;13.40;;;5.90;;
3845;SDS011;1938;50.812;7.738;2024-01-30T10:47:39;12.50;;;6.27;;
3845;SDS011;1938;50.812;7.738;2024-01-30T10:50:07;10.37;;;5.00;;
3845;SDS011;1938;50.812;7.738;2024-01-30T10:52:33;12.67;;;6.47;;
3845;SDS011;1938;50.812;7.738;2024-01-30T10:55:00;13.50;;;6.63;;
3845;SDS011;1938;50.812;7.738;2024-01-30T10:57:26;12.30;;;5.80;;
3845;SDS011;1938;50.812;7.738;2024-01-30T10:59:56;15.13;;;6.50;;
3845;SDS011;1938;50.812;7.738;2024-01-30T11:02:23;33.53;;;17.07;;
3845;SDS011;1938;50.812;7.738;2024-01-30T11:04:49;16.57;;;10.20;;
3845;SDS011;1938;50.812;7.738;2024-01-30T11:07:23;18.50;;;8.10;;
3845;SDS011;1938;50.812;7.738;2024-01-30T11:10:04;10.40;;;5.93;;
3845;SDS011;1938;50.812;7.738;2024-01-30T11:12:30;11.27;;;5.63;;
3845;SDS011;1938;50.812;7.738;2024-01-30T11:17:45;10.97;;;6.33;;
3845;SDS011;1938;50.812;7.738;2024-01-30T11:20:36;12.97;;;5.77;;
3845;SDS011;1938;50.812;7.738;2024-01-30T11:23:01;9.70;;;5.20;;
3845;SDS011;1938;50.812;7.738;2024-01-30T11:25:31;11.00;;;5.23;;
3845;SDS011;1938;50.812;7.738;2024-01-30T11:27:57;13.93;;;6.23;;
3845;SDS011;1938;50.812;7.738;2024-01-30T11:30:23;13.17;;;6.03;;
3845;SDS011;1938;50.812;7.738;2024-01-30T11:32:59;12.60;;;6.10;;
3845;SDS011;1938;50.812;7.738;2024-01-30T11:35:33;11.50;;;6.10;;
3845;SDS011;1938;50.812;7.738;2024-01-30T11:38:00;17.80;;;6.93;;
3845;SDS011;1938;50.812;7.738;2024-01-30T11:40:27;13.60;;;6.53;;
3845;SDS011;1938;50.812;7.738;2024-01-30T11:42:54;12.07;;;5.77;;
3845;SDS011;1938;50.812;7.738;2024-01-30T11:45:21;11.10;;;5.80;;
3845;SDS011;1938;50.812;7.738;2024-01-30T11:47:46;12.13;;;5.50;;
3845;SDS011;1938;50.812;7.738;2024-01-30T11:50:12;9.60;;;5.30;;
3845;SDS011;1938;50.812;7.738;2024-01-30T11:52:38;10.57;;;5.83;;
3845;SDS011;1938;50.812;7.738;2024-01-30T11:55:04;18.70;;;8.37;;
3845;SDS011;1938;50.812;7.738;2024-01-30T11:57:31;10.27;;;5.67;;
3845;SDS011;1938;50.812;7.738;2024-01-30T11:59:56;12.83;;;6.37;;
3845;SDS011;1938;50.812;7.738;2024-01-30T12:02:22;19.17;;;5.73;;
3845;SDS011;1938;50.812;7.738;2024-01-30T12:04:48;10.70;;;5.53;;
3845;SDS011;1938;50.812;7.738;2024-01-30T12:07:13;15.70;;;5.47;;
3845;SDS011;1938;50.812;7.738;2024-01-30T12:09:42;11.50;;;6.10;;
3845;SDS011;1938;50.812;7.738;2024-01-30T12:12:07;13.90;;;5.83;;
3845;SDS011;1938;50.812;7.738;2024-01-30T12:14:37;13.00;;;5.87;;
3845;SDS011;1938;50.812;7.738;2024-01-30T12:17:04;9.77;;;5.33;;
3845;SDS011;1938;50.812;7.738;2024-01-30T12:19:30;9.90;;;5.60;;
3845;SDS011;1938;50.812;7.738;2024-01-30T12:21:56;11.90;;;6.10;;
3845;SDS011;1938;50.812;7.738;2024-01-30T12:24:25;11.53;;;5.67;;
3845;SDS011;1938;50.812;7.738;2024-01-30T12:26:52;8.53;;;4.70;;
3845;SDS011;1938;50.812;7.738;2024-01-30T12:29:21;15.83;;;5.20;;
3845;SDS011;1938;50.812;7.738;2024-01-30T12:31:47;13.10;;;5.50;;
3845;SDS011;1938;50.812;7.738;2024-01-30T12:34:15;10.70;;;5.33;;
3845;SDS011;1938;50.812;7.738;2024-01-30T12:36:42;16.83;;;5.67;;
3845;SDS011;1938;50.812;7.738;2024-01-30T12:39:10;8.73;;;4.70;;
3845;SDS011;1938;50.812;7.738;2024-01-30T12:41:38;13.40;;;4.80;;
3845;SDS011;1938;50.812;7.738;2024-01-30T12:44:03;10.60;;;5.20;;
3845;SDS011;1938;50.812;7.738;2024-01-30T12:46:29;12.23;;;5.33;;
3845;SDS011;1938;50.812;7.738;2024-01-30T12:48:55;12.10;;;5.07;;
3845;SDS011;1938;50.812;7.738;2024-01-30T12:51:20;10.10;;;5.60;;
3845;SDS011;1938;50.812;7.738;2024-01-30T12:53:46;10.10;;;5.53;;
3845;SDS011;1938;50.812;7.738;2024-01-30T12:56:13;9.90;;;5.77;;
3845;SDS011;1938;50.812;7.738;2024-01-30T12:58:39;14.00;;;5.20;;
3845;SDS011;1938;50.812;7.738;2024-01-30T13:01:07;12.67;;;4.43;;
3845;SDS011;1938;50.812;7.738;2024-01-30T13:03:33;10.90;;;5.60;;
3845;SDS011;1938;50.812;7.738;2024-01-30T13:05:59;14.80;;;4.80;;
3845;SDS011;1938;50.812;7.738;2024-01-30T13:08:24;11.97;;;5.50;;
3845;SDS011;1938;50.812;7.738;2024-01-30T13:10:51;13.07;;;5.10;;
3845;SDS011;1938;50.812;7.738;2024-01-30T13:13:16;10.73;;;5.73;;
3845;SDS011;1938;50.812;7.738;2024-01-30T13:15:42;10.00;;;5.60;;
3845;SDS011;1938;50.812;7.738;2024-01-30T13:18:07;10.50;;;5.37;;
3845;SDS011;1938;50.812;7.738;2024-01-30T13:20:33;11.90;;;4.63;;
3845;SDS011;1938;50.812;7.738;2024-01-30T13:22:59;10.80;;;4.60;;
3845;SDS011;1938;50.812;7.738;2024-01-30T13:25:24;12.23;;;4.47;;
3845;SDS011;1938;50.812;7.738;2024-01-30T13:27:50;12.50;;;5.37;;
3845;SDS011;1938;50.812;7.738;2024-01-30T13:30:15;10.00;;;5.00;;
3845;SDS011;1938;50.812;7.738;2024-01-30T13:32:41;9.33;;;5.00;;
3845;SDS011;1938;50.812;7.738;2024-01-30T13:35:09;8.50;;;4.73;;
3845;SDS011;1938;50.812;7.738;2024-01-30T13:37:34;18.97;;;4.90;;
3845;SDS011;1938;50.812;7.738;2024-01-30T13:40:01;12.30;;;5.07;;
3845;SDS011;1938;50.812;7.738;2024-01-30T13:42:27;10.07;;;5.07;;
3845;SDS011;1938;50.812;7.738;2024-01-30T13:44:53;12.53;;;4.80;;
3845;SDS011;1938;50.812;7.738;2024-01-30T13:47:19;11.27;;;5.93;;
3845;SDS011;1938;50.812;7.738;2024-01-30T13:49:46;10.00;;;5.20;;
3845;SDS011;1938;50.812;7.738;2024-01-30T13:52:12;19.27;;;8.20;;
3845;SDS011;1938;50.812;7.738;2024-01-30T13:54:38;18.87;;;8.50;;
3845;SDS011;1938;50.812;7.738;2024-01-30T13:57:03;14.63;;;4.60;;
3845;SDS011;1938;50.812;7.738;2024-01-30T13:59:30;12.30;;;4.87;;
3845;SDS011;1938;50.812;7.738;2024-01-30T14:01:55;13.50;;;5.33;;
3845;SDS011;1938;50.812;7.738;2024-01-30T14:04:21;10.00;;;5.27;;
3845;SDS011;1938;50.812;7.738;2024-01-30T14:06:46;10.53;;;4.60;;
3845;SDS011;1938;50.812;7.738;2024-01-30T14:09:12;10.03;;;4.87;;
3845;SDS011;1938;50.812;7.738;2024-01-30T14:11:40;10.07;;;4.83;;
3845;SDS011;1938;50.812;7.738;2024-01-30T14:14:06;10.00;;;4.60;;
3845;SDS011;1938;50.812;7.738;2024-01-30T14:16:32;8.23;;;5.10;;
3845;SDS011;1938;50.812;7.738;2024-01-30T14:18:57;10.73;;;5.03;;
3845;SDS011;1938;50.812;7.738;2024-01-30T14:21:23;9.37;;;5.30;;
3845;SDS011;1938;50.812;7.738;2024-01-30T14:23:49;11.07;;;4.87;;
3845;SDS011;1938;50.812;7.738;2024-01-30T14:26:14;9.50;;;4.77;;
3845;SDS011;1938;50.812;7.738;2024-01-30T14:28:40;11.07;;;5.40;;
3845;SDS011;1938;50.812;7.738;2024-01-30T14:31:06;15.10;;;5.70;;
3845;SDS011;1938;50.812;7.738;2024-01-30T14:33:32;15.37;;;5.20;;
3845;SDS011;1938;50.812;7.738;2024-01-30T14:35:58;11.60;;;5.63;;
3845;SDS011;1938;50.812;7.738;2024-01-30T14:38:23;8.57;;;4.83;;
3845;SDS011;1938;50.812;7.738;2024-01-30T14:40:50;10.57;;;5.70;;
3845;SDS011;1938;50.812;7.738;2024-01-30T14:43:15;12.20;;;5.43;;
3845;SDS011;1938;50.812;7.738;2024-01-30T14:45:41;14.57;;;4.90;;
3845;SDS011;1938;50.812;7.738;2024-01-30T14:48:07;11.00;;;5.77;;
3845;SDS011;1938;50.812;7.738;2024-01-30T14:50:33;11.40;;;4.10;;
3845;SDS011;1938;50.812;7.738;2024-01-30T14:52:59;14.57;;;4.23;;
3845;SDS011;1938;50.812;7.738;2024-01-30T14:55:25;11.53;;;5.70;;
3845;SDS011;1938;50.812;7.738;2024-01-30T14:57:50;13.03;;;4.97;;
3845;SDS011;1938;50.812;7.738;2024-01-30T15:00:16;13.37;;;5.57;;